Latest METARs, TAFs and NOTAMs for MNMG


---------------------------------------------------------------------------
	(OBSERVATIONS)
MNMG 210200Z 12004KT 9999 FEW021 SCT070 26/21 Q1012 A2988  NOSIG
MNMG 210100Z 12004KT 9999 FEW020CB SCT070 27/22 Q1011 A2986 CB/NW/NE
    NOSIG=
MNMG 210000Z 08008KT 9999 FEW020CB SCT070 28/23 Q1010 A2984 CB/NW/NW
    1SC021 1CI300 NOSIG=
---------------------------------------------------------------------------
	(TERMINAL AREA FORECAST)
MNMG 202136Z 2100/2124 12008KT 9000 DZ/VCRA SCT022 SCT070
    FM210300 9999 FEW021 SCT300=
---------------------------------------------------------------------------
	(NOTAMS)


Sorry, no NOTAM available for MNMG
---------------------------------------------------------------------------